sensor_id;sensor_type;location;lat;lon;timestamp;temperature;humidity
56729;DHT22;42612;52.232;7.560;2023-12-14T00:00:20;11.00;65.40
56729;DHT22;42612;52.232;7.560;2023-12-14T00:02:46;10.90;66.00
56729;DHT22;42612;52.232;7.560;2023-12-14T00:05:11;10.80;65.50
56729;DHT22;42612;52.232;7.560;2023-12-14T00:07:37;10.70;65.50
56729;DHT22;42612;52.232;7.560;2023-12-14T00:10:03;10.70;65.50
56729;DHT22;42612;52.232;7.560;2023-12-14T00:12:30;10.60;65.60
56729;DHT22;42612;52.232;7.560;2023-12-14T00:14:56;10.60;65.70
56729;DHT22;42612;52.232;7.560;2023-12-14T00:17:22;10.60;66.00
56729;DHT22;42612;52.232;7.560;2023-12-14T00:19:48;10.50;66.00
56729;DHT22;42612;52.232;7.560;2023-12-14T00:22:13;10.50;66.30
56729;DHT22;42612;52.232;7.560;2023-12-14T00:24:39;10.50;66.90
56729;DHT22;42612;52.232;7.560;2023-12-14T00:27:05;10.40;66.30
56729;DHT22;42612;52.232;7.560;2023-12-14T00:29:31;10.50;66.60
56729;DHT22;42612;52.232;7.560;2023-12-14T00:31:56;10.50;66.90
56729;DHT22;42612;52.232;7.560;2023-12-14T00:34:22;10.50;66.70
56729;DHT22;42612;52.232;7.560;2023-12-14T00:36:48;10.50;66.90
56729;DHT22;42612;52.232;7.560;2023-12-14T00:39:13;10.60;67.30
56729;DHT22;42612;52.232;7.560;2023-12-14T00:41:39;10.60;67.10
56729;DHT22;42612;52.232;7.560;2023-12-14T00:44:05;10.60;66.90
56729;DHT22;42612;52.232;7.560;2023-12-14T00:46:30;10.70;66.50
56729;DHT22;42612;52.232;7.560;2023-12-14T00:48:56;10.70;66.40
56729;DHT22;42612;52.232;7.560;2023-12-14T00:51:22;10.70;66.20
56729;DHT22;42612;52.232;7.560;2023-12-14T00:53:48;10.70;66.20
56729;DHT22;42612;52.232;7.560;2023-12-14T00:56:13;10.70;66.20
56729;DHT22;42612;52.232;7.560;2023-12-14T00:58:39;10.70;66.20
56729;DHT22;42612;52.232;7.560;2023-12-14T01:01:05;10.70;65.90
56729;DHT22;42612;52.232;7.560;2023-12-14T01:03:30;10.70;65.60
56729;DHT22;42612;52.232;7.560;2023-12-14T01:05:56;10.70;65.40
56729;DHT22;42612;52.232;7.560;2023-12-14T01:08:22;10.60;65.30
56729;DHT22;42612;52.232;7.560;2023-12-14T01:10:48;10.60;65.20
56729;DHT22;42612;52.232;7.560;2023-12-14T01:13:13;10.60;65.30
56729;DHT22;42612;52.232;7.560;2023-12-14T01:15:39;10.50;65.20
56729;DHT22;42612;52.232;7.560;2023-12-14T01:18:05;10.50;65.30
56729;DHT22;42612;52.232;7.560;2023-12-14T01:20:31;10.40;65.40
56729;DHT22;42612;52.232;7.560;2023-12-14T01:22:56;10.40;65.30
56729;DHT22;42612;52.232;7.560;2023-12-14T01:25:22;10.40;65.20
56729;DHT22;42612;52.232;7.560;2023-12-14T01:27:48;10.30;65.90
56729;DHT22;42612;52.232;7.560;2023-12-14T01:30:13;10.20;65.20
56729;DHT22;42612;52.232;7.560;2023-12-14T01:32:39;10.20;65.20
56729;DHT22;42612;52.232;7.560;2023-12-14T01:35:05;10.10;65.20
56729;DHT22;42612;52.232;7.560;2023-12-14T01:37:31;10.10;65.30
56729;DHT22;42612;52.232;7.560;2023-12-14T01:39:57;10.00;65.40
56729;DHT22;42612;52.232;7.560;2023-12-14T01:42:22;9.90;65.70
56729;DHT22;42612;52.232;7.560;2023-12-14T01:44:48;9.80;65.80
56729;DHT22;42612;52.232;7.560;2023-12-14T01:47:14;9.80;66.00
56729;DHT22;42612;52.232;7.560;2023-12-14T01:49:40;9.80;66.20
56729;DHT22;42612;52.232;7.560;2023-12-14T01:52:07;9.80;66.40
56729;DHT22;42612;52.232;7.560;2023-12-14T01:54:32;9.80;66.50
56729;DHT22;42612;52.232;7.560;2023-12-14T01:56:59;9.80;66.60
56729;DHT22;42612;52.232;7.560;2023-12-14T01:59:25;9.90;66.70
56729;DHT22;42612;52.232;7.560;2023-12-14T02:01:55;9.90;66.60
56729;DHT22;42612;52.232;7.560;2023-12-14T02:04:25;9.90;67.00
56729;DHT22;42612;52.232;7.560;2023-12-14T02:06:51;10.00;67.10
56729;DHT22;42612;52.232;7.560;2023-12-14T02:09:17;10.00;66.90
56729;DHT22;42612;52.232;7.560;2023-12-14T02:11:42;10.10;66.70
56729;DHT22;42612;52.232;7.560;2023-12-14T02:14:09;10.20;66.60
56729;DHT22;42612;52.232;7.560;2023-12-14T02:16:36;10.20;67.20
56729;DHT22;42612;52.232;7.560;2023-12-14T02:19:04;10.20;66.40
56729;DHT22;42612;52.232;7.560;2023-12-14T02:21:30;10.30;66.60
56729;DHT22;42612;52.232;7.560;2023-12-14T02:23:56;10.30;66.50
56729;DHT22;42612;52.232;7.560;2023-12-14T02:26:22;10.30;66.20
56729;DHT22;42612;52.232;7.560;2023-12-14T02:28:48;10.40;65.90
56729;DHT22;42612;52.232;7.560;2023-12-14T02:31:14;10.40;65.80
56729;DHT22;42612;52.232;7.560;2023-12-14T02:33:39;10.40;65.90
56729;DHT22;42612;52.232;7.560;2023-12-14T02:36:05;10.40;66.10
56729;DHT22;42612;52.232;7.560;2023-12-14T02:38:31;10.40;66.00
56729;DHT22;42612;52.232;7.560;2023-12-14T02:40:57;10.40;66.30
56729;DHT22;42612;52.232;7.560;2023-12-14T02:43:23;10.40;65.80
56729;DHT22;42612;52.232;7.560;2023-12-14T02:45:49;10.40;66.00
56729;DHT22;42612;52.232;7.560;2023-12-14T02:48:15;10.50;66.30
56729;DHT22;42612;52.232;7.560;2023-12-14T02:50:41;10.50;66.20
56729;DHT22;42612;52.232;7.560;2023-12-14T02:53:06;10.50;66.00
56729;DHT22;42612;52.232;7.560;2023-12-14T02:55:32;10.50;65.90
56729;DHT22;42612;52.232;7.560;2023-12-14T02:57:58;10.60;65.80
56729;DHT22;42612;52.232;7.560;2023-12-14T03:00:24;10.60;65.70
56729;DHT22;42612;52.232;7.560;2023-12-14T03:02:49;10.70;65.60
56729;DHT22;42612;52.232;7.560;2023-12-14T03:05:15;10.70;65.50
56729;DHT22;42612;52.232;7.560;2023-12-14T03:07:41;10.70;65.50
56729;DHT22;42612;52.232;7.560;2023-12-14T03:10:07;10.80;65.50
56729;DHT22;42612;52.232;7.560;2023-12-14T03:12:33;10.80;65.60
56729;DHT22;42612;52.232;7.560;2023-12-14T03:14:59;10.80;65.30
56729;DHT22;42612;52.232;7.560;2023-12-14T03:17:25;10.80;65.10
56729;DHT22;42612;52.232;7.560;2023-12-14T03:19:51;10.80;65.10
56729;DHT22;42612;52.232;7.560;2023-12-14T03:22:16;10.90;65.10
56729;DHT22;42612;52.232;7.560;2023-12-14T03:24:42;10.80;65.80
56729;DHT22;42612;52.232;7.560;2023-12-14T03:27:08;10.80;65.00
56729;DHT22;42612;52.232;7.560;2023-12-14T03:29:33;10.80;64.60
56729;DHT22;42612;52.232;7.560;2023-12-14T03:32:00;10.80;64.60
56729;DHT22;42612;52.232;7.560;2023-12-14T03:34:26;10.80;64.60
56729;DHT22;42612;52.232;7.560;2023-12-14T03:36:51;10.80;64.70
56729;DHT22;42612;52.232;7.560;2023-12-14T03:39:17;10.80;64.60
56729;DHT22;42612;52.232;7.560;2023-12-14T03:41:44;10.80;65.30
56729;DHT22;42612;52.232;7.560;2023-12-14T03:44:10;10.80;64.50
56729;DHT22;42612;52.232;7.560;2023-12-14T03:46:35;10.80;64.70
56729;DHT22;42612;52.232;7.560;2023-12-14T03:49:02;10.80;64.50
56729;DHT22;42612;52.232;7.560;2023-12-14T03:51:28;10.80;64.40
56729;DHT22;42612;52.232;7.560;2023-12-14T03:53:54;10.80;64.50
56729;DHT22;42612;52.232;7.560;2023-12-14T03:56:19;10.80;65.10
56729;DHT22;42612;52.232;7.560;2023-12-14T03:58:45;10.80;64.60
56729;DHT22;42612;52.232;7.560;2023-12-14T04:01:18;10.80;64.70
56729;DHT22;42612;52.232;7.560;2023-12-14T04:03:45;10.80;64.20
56729;DHT22;42612;52.232;7.560;2023-12-14T04:06:11;10.80;64.20
56729;DHT22;42612;52.232;7.560;2023-12-14T04:08:37;10.80;64.10
56729;DHT22;42612;52.232;7.560;2023-12-14T04:11:04;10.80;63.90
56729;DHT22;42612;52.232;7.560;2023-12-14T04:13:30;10.70;63.60
56729;DHT22;42612;52.232;7.560;2023-12-14T04:15:56;10.60;63.50
56729;DHT22;42612;52.232;7.560;2023-12-14T04:18:23;10.60;63.80
56729;DHT22;42612;52.232;7.560;2023-12-14T04:20:49;10.60;64.30
56729;DHT22;42612;52.232;7.560;2023-12-14T04:23:14;10.50;64.40
56729;DHT22;42612;52.232;7.560;2023-12-14T04:25:40;10.50;64.50
56729;DHT22;42612;52.232;7.560;2023-12-14T04:28:06;10.50;64.30
56729;DHT22;42612;52.232;7.560;2023-12-14T04:30:31;10.50;64.20
56729;DHT22;42612;52.232;7.560;2023-12-14T04:32:57;10.50;64.30
56729;DHT22;42612;52.232;7.560;2023-12-14T04:35:23;10.50;64.30
56729;DHT22;42612;52.232;7.560;2023-12-14T04:37:49;10.50;64.10
56729;DHT22;42612;52.232;7.560;2023-12-14T04:40:15;10.50;64.20
56729;DHT22;42612;52.232;7.560;2023-12-14T04:42:40;10.50;64.30
56729;DHT22;42612;52.232;7.560;2023-12-14T04:45:06;10.50;64.20
56729;DHT22;42612;52.232;7.560;2023-12-14T04:47:34;10.40;63.90
56729;DHT22;42612;52.232;7.560;2023-12-14T04:50:01;10.50;63.70
56729;DHT22;42612;52.232;7.560;2023-12-14T04:52:28;10.40;63.70
56729;DHT22;42612;52.232;7.560;2023-12-14T04:54:53;10.40;63.70
56729;DHT22;42612;52.232;7.560;2023-12-14T04:57:19;10.30;63.80
56729;DHT22;42612;52.232;7.560;2023-12-14T04:59:45;10.30;63.90
56729;DHT22;42612;52.232;7.560;2023-12-14T05:02:10;10.30;63.90
56729;DHT22;42612;52.232;7.560;2023-12-14T05:04:36;10.20;63.70
56729;DHT22;42612;52.232;7.560;2023-12-14T05:07:02;10.20;64.00
56729;DHT22;42612;52.232;7.560;2023-12-14T05:09:28;10.10;64.40
56729;DHT22;42612;52.232;7.560;2023-12-14T05:11:54;10.10;64.60
56729;DHT22;42612;52.232;7.560;2023-12-14T05:14:19;10.10;64.40
56729;DHT22;42612;52.232;7.560;2023-12-14T05:16:45;10.10;64.30
56729;DHT22;42612;52.232;7.560;2023-12-14T05:19:11;10.10;64.30
56729;DHT22;42612;52.232;7.560;2023-12-14T05:21:38;10.10;64.20
56729;DHT22;42612;52.232;7.560;2023-12-14T05:24:04;10.00;64.20
56729;DHT22;42612;52.232;7.560;2023-12-14T05:26:31;10.00;64.50
56729;DHT22;42612;52.232;7.560;2023-12-14T05:28:56;10.00;64.80
56729;DHT22;42612;52.232;7.560;2023-12-14T05:31:22;10.00;64.80
56729;DHT22;42612;52.232;7.560;2023-12-14T05:33:48;9.90;64.90
56729;DHT22;42612;52.232;7.560;2023-12-14T05:36:13;9.90;64.90
56729;DHT22;42612;52.232;7.560;2023-12-14T05:38:40;9.90;65.00
56729;DHT22;42612;52.232;7.560;2023-12-14T05:41:06;9.90;65.20
56729;DHT22;42612;52.232;7.560;2023-12-14T05:43:32;9.90;65.50
56729;DHT22;42612;52.232;7.560;2023-12-14T05:45:58;10.00;65.60
56729;DHT22;42612;52.232;7.560;2023-12-14T05:48:24;10.00;65.60
56729;DHT22;42612;52.232;7.560;2023-12-14T05:50:52;10.00;65.70
56729;DHT22;42612;52.232;7.560;2023-12-14T05:53:18;10.10;65.80
56729;DHT22;42612;52.232;7.560;2023-12-14T05:55:43;10.10;65.90
56729;DHT22;42612;52.232;7.560;2023-12-14T05:58:09;10.20;66.00
56729;DHT22;42612;52.232;7.560;2023-12-14T06:00:35;10.20;65.70
56729;DHT22;42612;52.232;7.560;2023-12-14T06:03:01;10.30;65.80
56729;DHT22;42612;52.232;7.560;2023-12-14T06:05:27;10.30;65.40
56729;DHT22;42612;52.232;7.560;2023-12-14T06:07:53;10.40;65.30
56729;DHT22;42612;52.232;7.560;2023-12-14T06:10:20;10.40;65.10
56729;DHT22;42612;52.232;7.560;2023-12-14T06:12:46;10.40;64.80
56729;DHT22;42612;52.232;7.560;2023-12-14T06:15:13;10.50;64.80
56729;DHT22;42612;52.232;7.560;2023-12-14T06:17:39;10.50;64.70
56729;DHT22;42612;52.232;7.560;2023-12-14T06:20:07;10.50;64.10
56729;DHT22;42612;52.232;7.560;2023-12-14T06:22:38;10.50;63.60
56729;DHT22;42612;52.232;7.560;2023-12-14T06:25:04;10.50;63.50
56729;DHT22;42612;52.232;7.560;2023-12-14T06:27:30;10.40;63.50
56729;DHT22;42612;52.232;7.560;2023-12-14T06:29:56;10.40;63.70
56729;DHT22;42612;52.232;7.560;2023-12-14T06:32:22;10.40;63.70
56729;DHT22;42612;52.232;7.560;2023-12-14T06:34:48;10.40;63.60
56729;DHT22;42612;52.232;7.560;2023-12-14T06:37:13;10.40;63.60
56729;DHT22;42612;52.232;7.560;2023-12-14T06:39:42;10.40;63.60
56729;DHT22;42612;52.232;7.560;2023-12-14T06:42:08;10.30;63.40
56729;DHT22;42612;52.232;7.560;2023-12-14T06:44:34;10.40;64.30
56729;DHT22;42612;52.232;7.560;2023-12-14T06:47:00;10.40;63.50
56729;DHT22;42612;52.232;7.560;2023-12-14T06:49:25;10.40;63.50
56729;DHT22;42612;52.232;7.560;2023-12-14T06:51:51;10.40;63.40
56729;DHT22;42612;52.232;7.560;2023-12-14T06:54:17;10.40;63.40
56729;DHT22;42612;52.232;7.560;2023-12-14T06:56:43;10.40;63.30
56729;DHT22;42612;52.232;7.560;2023-12-14T06:59:09;10.30;63.30
56729;DHT22;42612;52.232;7.560;2023-12-14T07:01:34;10.30;63.20
56729;DHT22;42612;52.232;7.560;2023-12-14T07:04:00;10.30;63.00
56729;DHT22;42612;52.232;7.560;2023-12-14T07:06:28;10.30;62.90
56729;DHT22;42612;52.232;7.560;2023-12-14T07:08:54;10.30;62.80
56729;DHT22;42612;52.232;7.560;2023-12-14T07:11:20;10.20;62.80
56729;DHT22;42612;52.232;7.560;2023-12-14T07:13:45;10.20;62.90
56729;DHT22;42612;52.232;7.560;2023-12-14T07:16:13;10.10;62.70
56729;DHT22;42612;52.232;7.560;2023-12-14T07:18:40;10.00;62.70
56729;DHT22;42612;52.232;7.560;2023-12-14T07:21:07;10.00;62.70
56729;DHT22;42612;52.232;7.560;2023-12-14T07:23:34;9.90;62.50
56729;DHT22;42612;52.232;7.560;2023-12-14T07:26:00;9.80;62.80
56729;DHT22;42612;52.232;7.560;2023-12-14T07:28:26;9.70;62.90
56729;DHT22;42612;52.232;7.560;2023-12-14T07:30:52;9.70;62.90
56729;DHT22;42612;52.232;7.560;2023-12-14T07:33:18;9.50;63.00
56729;DHT22;42612;52.232;7.560;2023-12-14T07:35:44;9.50;63.20
56729;DHT22;42612;52.232;7.560;2023-12-14T07:38:10;9.40;63.50
56729;DHT22;42612;52.232;7.560;2023-12-14T07:40:36;9.40;63.60
56729;DHT22;42612;52.232;7.560;2023-12-14T07:43:04;9.40;63.80
56729;DHT22;42612;52.232;7.560;2023-12-14T07:45:30;9.40;64.10
56729;DHT22;42612;52.232;7.560;2023-12-14T07:47:55;9.40;64.10
56729;DHT22;42612;52.232;7.560;2023-12-14T07:50:21;9.40;64.10
56729;DHT22;42612;52.232;7.560;2023-12-14T07:52:47;9.40;64.50
56729;DHT22;42612;52.232;7.560;2023-12-14T07:55:13;9.40;64.60
56729;DHT22;42612;52.232;7.560;2023-12-14T07:57:41;9.50;64.30
56729;DHT22;42612;52.232;7.560;2023-12-14T08:00:07;9.50;64.00
56729;DHT22;42612;52.232;7.560;2023-12-14T08:02:34;9.50;63.70
56729;DHT22;42612;52.232;7.560;2023-12-14T08:05:00;9.50;63.60
56729;DHT22;42612;52.232;7.560;2023-12-14T08:07:26;9.50;63.50
56729;DHT22;42612;52.232;7.560;2023-12-14T08:09:55;9.40;63.40
56729;DHT22;42612;52.232;7.560;2023-12-14T08:12:22;9.40;63.40
56729;DHT22;42612;52.232;7.560;2023-12-14T08:14:48;9.40;63.40
56729;DHT22;42612;52.232;7.560;2023-12-14T08:17:14;9.40;63.20
56729;DHT22;42612;52.232;7.560;2023-12-14T08:19:40;9.40;63.40
56729;DHT22;42612;52.232;7.560;2023-12-14T08:22:06;9.30;64.40
56729;DHT22;42612;52.232;7.560;2023-12-14T08:24:33;9.30;63.90
56729;DHT22;42612;52.232;7.560;2023-12-14T08:26:58;9.40;64.00
56729;DHT22;42612;52.232;7.560;2023-12-14T08:29:24;9.40;63.90
56729;DHT22;42612;52.232;7.560;2023-12-14T08:31:50;9.40;63.90
56729;DHT22;42612;52.232;7.560;2023-12-14T08:34:15;9.40;63.70
56729;DHT22;42612;52.232;7.560;2023-12-14T08:36:41;9.50;63.70
56729;DHT22;42612;52.232;7.560;2023-12-14T08:39:07;9.50;63.70
56729;DHT22;42612;52.232;7.560;2023-12-14T08:41:32;9.50;63.80
56729;DHT22;42612;52.232;7.560;2023-12-14T08:43:58;9.50;63.90
56729;DHT22;42612;52.232;7.560;2023-12-14T08:46:24;9.60;63.90
56729;DHT22;42612;52.232;7.560;2023-12-14T08:48:49;9.60;63.80
56729;DHT22;42612;52.232;7.560;2023-12-14T08:51:15;9.60;63.70
56729;DHT22;42612;52.232;7.560;2023-12-14T08:53:42;9.60;63.60
56729;DHT22;42612;52.232;7.560;2023-12-14T08:56:09;9.60;63.60
56729;DHT22;42612;52.232;7.560;2023-12-14T08:58:34;9.60;63.50
56729;DHT22;42612;52.232;7.560;2023-12-14T09:01:01;9.60;63.30
56729;DHT22;42612;52.232;7.560;2023-12-14T09:03:26;9.60;63.20
56729;DHT22;42612;52.232;7.560;2023-12-14T09:05:52;9.60;63.40
56729;DHT22;42612;52.232;7.560;2023-12-14T09:08:18;9.60;63.50
56729;DHT22;42612;52.232;7.560;2023-12-14T09:10:44;9.70;63.60
56729;DHT22;42612;52.232;7.560;2023-12-14T09:13:09;9.70;63.60
56729;DHT22;42612;52.232;7.560;2023-12-14T09:15:35;9.70;63.60
56729;DHT22;42612;52.232;7.560;2023-12-14T09:18:01;9.70;63.70
56729;DHT22;42612;52.232;7.560;2023-12-14T09:20:28;9.80;64.00
56729;DHT22;42612;52.232;7.560;2023-12-14T09:22:53;9.80;63.90
56729;DHT22;42612;52.232;7.560;2023-12-14T09:25:19;9.90;63.80
56729;DHT22;42612;52.232;7.560;2023-12-14T09:27:45;9.90;63.70
56729;DHT22;42612;52.232;7.560;2023-12-14T09:30:11;9.90;63.60
56729;DHT22;42612;52.232;7.560;2023-12-14T09:32:38;10.00;63.50
56729;DHT22;42612;52.232;7.560;2023-12-14T09:35:05;10.00;64.00
56729;DHT22;42612;52.232;7.560;2023-12-14T09:37:32;10.10;63.30
56729;DHT22;42612;52.232;7.560;2023-12-14T09:39:57;10.10;63.20
56729;DHT22;42612;52.232;7.560;2023-12-14T09:42:23;10.10;63.00
56729;DHT22;42612;52.232;7.560;2023-12-14T09:44:51;10.20;63.70
56729;DHT22;42612;52.232;7.560;2023-12-14T09:47:18;10.20;62.90
56729;DHT22;42612;52.232;7.560;2023-12-14T09:49:45;10.20;63.00
56729;DHT22;42612;52.232;7.560;2023-12-14T09:52:11;10.30;63.00
56729;DHT22;42612;52.232;7.560;2023-12-14T09:54:37;10.30;62.90
56729;DHT22;42612;52.232;7.560;2023-12-14T09:57:03;10.30;62.90
56729;DHT22;42612;52.232;7.560;2023-12-14T09:59:29;10.40;62.70
56729;DHT22;42612;52.232;7.560;2023-12-14T10:02:15;10.40;63.20
56729;DHT22;42612;52.232;7.560;2023-12-14T10:04:43;10.40;61.60
56729;DHT22;42612;52.232;7.560;2023-12-14T10:07:09;10.40;62.30
56729;DHT22;42612;52.232;7.560;2023-12-14T10:09:36;10.40;62.40
56729;DHT22;42612;52.232;7.560;2023-12-14T10:12:03;10.40;62.30
56729;DHT22;42612;52.232;7.560;2023-12-14T10:14:31;10.50;62.00
56729;DHT22;42612;52.232;7.560;2023-12-14T10:16:58;10.50;62.30
56729;DHT22;42612;52.232;7.560;2023-12-14T10:19:23;10.40;62.00
56729;DHT22;42612;52.232;7.560;2023-12-14T10:21:50;10.40;62.80
56729;DHT22;42612;52.232;7.560;2023-12-14T10:24:17;10.40;62.70
56729;DHT22;42612;52.232;7.560;2023-12-14T10:26:47;10.40;62.10
56729;DHT22;42612;52.232;7.560;2023-12-14T10:29:13;10.40;62.90
56729;DHT22;42612;52.232;7.560;2023-12-14T10:31:39;10.40;62.30
56729;DHT22;42612;52.232;7.560;2023-12-14T10:34:05;10.40;62.20
56729;DHT22;42612;52.232;7.560;2023-12-14T10:36:31;10.40;62.30
56729;DHT22;42612;52.232;7.560;2023-12-14T10:38:59;10.40;62.10
56729;DHT22;42612;52.232;7.560;2023-12-14T10:41:26;10.40;62.10
56729;DHT22;42612;52.232;7.560;2023-12-14T10:43:55;10.40;62.10
56729;DHT22;42612;52.232;7.560;2023-12-14T10:46:23;10.40;62.20
56729;DHT22;42612;52.232;7.560;2023-12-14T10:48:50;10.40;62.20
56729;DHT22;42612;52.232;7.560;2023-12-14T10:51:22;10.40;62.00
56729;DHT22;42612;52.232;7.560;2023-12-14T10:53:49;10.40;61.70
56729;DHT22;42612;52.232;7.560;2023-12-14T10:56:17;10.50;62.00
56729;DHT22;42612;52.232;7.560;2023-12-14T10:58:51;10.50;62.00
56729;DHT22;42612;52.232;7.560;2023-12-14T11:01:22;10.50;61.70
56729;DHT22;42612;52.232;7.560;2023-12-14T11:03:58;10.50;61.80
56729;DHT22;42612;52.232;7.560;2023-12-14T11:08:54;10.40;61.90
56729;DHT22;42612;52.232;7.560;2023-12-14T11:11:28;10.40;61.70
56729;DHT22;42612;52.232;7.560;2023-12-14T11:13:54;10.40;61.80
56729;DHT22;42612;52.232;7.560;2023-12-14T11:16:21;10.40;61.90
56729;DHT22;42612;52.232;7.560;2023-12-14T11:18:48;10.40;61.80
56729;DHT22;42612;52.232;7.560;2023-12-14T11:21:41;10.40;61.70
56729;DHT22;42612;52.232;7.560;2023-12-14T11:24:07;10.40;61.90
56729;DHT22;42612;52.232;7.560;2023-12-14T11:26:32;10.40;62.00
56729;DHT22;42612;52.232;7.560;2023-12-14T11:28:58;10.40;62.10
56729;DHT22;42612;52.232;7.560;2023-12-14T11:31:24;10.50;62.20
56729;DHT22;42612;52.232;7.560;2023-12-14T11:33:50;10.50;62.30
56729;DHT22;42612;52.232;7.560;2023-12-14T11:36:16;10.50;62.20
56729;DHT22;42612;52.232;7.560;2023-12-14T11:38:42;10.50;62.00
56729;DHT22;42612;52.232;7.560;2023-12-14T11:41:09;10.50;61.80
56729;DHT22;42612;52.232;7.560;2023-12-14T11:43:41;10.50;61.90
56729;DHT22;42612;52.232;7.560;2023-12-14T11:46:07;10.50;61.90
56729;DHT22;42612;52.232;7.560;2023-12-14T11:48:33;10.50;62.00
56729;DHT22;42612;52.232;7.560;2023-12-14T11:50:59;10.50;61.90
56729;DHT22;42612;52.232;7.560;2023-12-14T11:53:26;10.60;61.90
56729;DHT22;42612;52.232;7.560;2023-12-14T11:55:52;10.50;61.90
56729;DHT22;42612;52.232;7.560;2023-12-14T11:58:18;10.60;62.00
56729;DHT22;42612;52.232;7.560;2023-12-14T12:00:44;10.50;62.10
56729;DHT22;42612;52.232;7.560;2023-12-14T12:03:15;10.60;62.20
56729;DHT22;42612;52.232;7.560;2023-12-14T12:05:43;10.60;62.30
56729;DHT22;42612;52.232;7.560;2023-12-14T12:08:11;10.60;62.30
56729;DHT22;42612;52.232;7.560;2023-12-14T12:10:39;10.60;62.40
56729;DHT22;42612;52.232;7.560;2023-12-14T12:13:17;10.60;62.90
56729;DHT22;42612;52.232;7.560;2023-12-14T12:15:44;10.60;62.00
56729;DHT22;42612;52.232;7.560;2023-12-14T12:18:12;10.60;62.00
56729;DHT22;42612;52.232;7.560;2023-12-14T12:20:39;10.70;62.60
56729;DHT22;42612;52.232;7.560;2023-12-14T12:23:05;10.70;62.00
56729;DHT22;42612;52.232;7.560;2023-12-14T12:25:32;10.70;61.90
56729;DHT22;42612;52.232;7.560;2023-12-14T12:27:59;10.70;61.90
56729;DHT22;42612;52.232;7.560;2023-12-14T12:30:26;10.70;61.80
56729;DHT22;42612;52.232;7.560;2023-12-14T12:32:51;10.70;61.80
56729;DHT22;42612;52.232;7.560;2023-12-14T12:35:18;10.70;61.70
56729;DHT22;42612;52.232;7.560;2023-12-14T12:37:44;10.70;61.80
56729;DHT22;42612;52.232;7.560;2023-12-14T12:40:11;10.70;61.60
56729;DHT22;42612;52.232;7.560;2023-12-14T12:42:37;10.70;61.40
56729;DHT22;42612;52.232;7.560;2023-12-14T12:45:03;10.70;61.30
56729;DHT22;42612;52.232;7.560;2023-12-14T12:47:30;10.70;61.20
56729;DHT22;42612;52.232;7.560;2023-12-14T12:49:56;10.70;61.20
56729;DHT22;42612;52.232;7.560;2023-12-14T12:52:21;10.70;61.10
56729;DHT22;42612;52.232;7.560;2023-12-14T12:54:47;10.70;61.00
56729;DHT22;42612;52.232;7.560;2023-12-14T12:57:13;10.60;60.90
56729;DHT22;42612;52.232;7.560;2023-12-14T12:59:39;10.60;60.90
56729;DHT22;42612;52.232;7.560;2023-12-14T13:02:05;10.60;61.00
56729;DHT22;42612;52.232;7.560;2023-12-14T13:04:31;10.50;61.00
56729;DHT22;42612;52.232;7.560;2023-12-14T13:06:57;10.50;61.40
56729;DHT22;42612;52.232;7.560;2023-12-14T13:09:23;10.50;61.70
56729;DHT22;42612;52.232;7.560;2023-12-14T13:11:49;10.50;61.90
56729;DHT22;42612;52.232;7.560;2023-12-14T13:14:16;10.50;61.90
56729;DHT22;42612;52.232;7.560;2023-12-14T13:16:42;10.50;61.90
56729;DHT22;42612;52.232;7.560;2023-12-14T13:19:09;10.50;62.00
56729;DHT22;42612;52.232;7.560;2023-12-14T13:21:35;10.60;61.90
56729;DHT22;42612;52.232;7.560;2023-12-14T13:24:01;10.60;61.90
56729;DHT22;42612;52.232;7.560;2023-12-14T13:26:27;10.60;61.80
56729;DHT22;42612;52.232;7.560;2023-12-14T13:28:53;10.70;61.90
56729;DHT22;42612;52.232;7.560;2023-12-14T13:31:19;10.70;61.80
56729;DHT22;42612;52.232;7.560;2023-12-14T13:33:47;10.70;61.80
56729;DHT22;42612;52.232;7.560;2023-12-14T13:36:14;10.70;61.80
56729;DHT22;42612;52.232;7.560;2023-12-14T13:38:41;10.70;61.70
56729;DHT22;42612;52.232;7.560;2023-12-14T13:41:10;10.70;61.70
56729;DHT22;42612;52.232;7.560;2023-12-14T13:43:35;10.70;61.40
56729;DHT22;42612;52.232;7.560;2023-12-14T13:46:01;10.70;61.40
56729;DHT22;42612;52.232;7.560;2023-12-14T13:48:28;10.70;61.40
56729;DHT22;42612;52.232;7.560;2023-12-14T13:50:55;10.70;61.40
56729;DHT22;42612;52.232;7.560;2023-12-14T13:53:21;10.70;61.40
56729;DHT22;42612;52.232;7.560;2023-12-14T13:55:48;10.70;61.30
56729;DHT22;42612;52.232;7.560;2023-12-14T13:58:15;10.70;61.10
56729;DHT22;42612;52.232;7.560;2023-12-14T14:00:41;10.70;61.20
56729;DHT22;42612;52.232;7.560;2023-12-14T14:03:08;10.60;61.30
56729;DHT22;42612;52.232;7.560;2023-12-14T14:05:34;10.70;61.20
56729;DHT22;42612;52.232;7.560;2023-12-14T14:08:00;10.60;61.30
56729;DHT22;42612;52.232;7.560;2023-12-14T14:10:26;10.60;61.20
56729;DHT22;42612;52.232;7.560;2023-12-14T14:12:52;10.60;61.00
56729;DHT22;42612;52.232;7.560;2023-12-14T14:15:19;10.60;61.00
56729;DHT22;42612;52.232;7.560;2023-12-14T14:17:47;10.60;61.10
56729;DHT22;42612;52.232;7.560;2023-12-14T14:20:17;10.60;61.30
56729;DHT22;42612;52.232;7.560;2023-12-14T14:22:44;10.50;61.30
56729;DHT22;42612;52.232;7.560;2023-12-14T14:25:10;10.50;61.30
56729;DHT22;42612;52.232;7.560;2023-12-14T14:27:36;10.50;61.30
56729;DHT22;42612;52.232;7.560;2023-12-14T14:30:02;10.50;61.40
56729;DHT22;42612;52.232;7.560;2023-12-14T14:32:28;10.50;61.50
56729;DHT22;42612;52.232;7.560;2023-12-14T14:34:57;10.50;61.40
56729;DHT22;42612;52.232;7.560;2023-12-14T14:37:24;10.50;61.20
56729;DHT22;42612;52.232;7.560;2023-12-14T14:39:50;10.50;61.10
56729;DHT22;42612;52.232;7.560;2023-12-14T14:42:16;10.60;61.20
56729;DHT22;42612;52.232;7.560;2023-12-14T14:44:42;10.50;61.20
56729;DHT22;42612;52.232;7.560;2023-12-14T14:47:07;10.50;61.10
56729;DHT22;42612;52.232;7.560;2023-12-14T14:49:33;10.50;61.90
56729;DHT22;42612;52.232;7.560;2023-12-14T14:51:59;10.50;61.40
56729;DHT22;42612;52.232;7.560;2023-12-14T14:54:25;10.50;61.30
56729;DHT22;42612;52.232;7.560;2023-12-14T14:56:51;10.50;61.40
56729;DHT22;42612;52.232;7.560;2023-12-14T14:59:16;10.50;61.30
56729;DHT22;42612;52.232;7.560;2023-12-14T15:01:42;10.50;61.20
56729;DHT22;42612;52.232;7.560;2023-12-14T15:04:08;10.40;61.20
56729;DHT22;42612;52.232;7.560;2023-12-14T15:06:34;10.50;61.90
56729;DHT22;42612;52.232;7.560;2023-12-14T15:09:00;10.40;61.20
56729;DHT22;42612;52.232;7.560;2023-12-14T15:11:26;10.40;61.30
56729;DHT22;42612;52.232;7.560;2023-12-14T15:13:52;10.40;61.30
56729;DHT22;42612;52.232;7.560;2023-12-14T15:16:17;10.40;61.20
56729;DHT22;42612;52.232;7.560;2023-12-14T15:18:44;10.50;61.10
56729;DHT22;42612;52.232;7.560;2023-12-14T15:21:11;10.50;61.20
56729;DHT22;42612;52.232;7.560;2023-12-14T15:23:39;10.50;61.10
56729;DHT22;42612;52.232;7.560;2023-12-14T15:26:06;10.50;61.10
56729;DHT22;42612;52.232;7.560;2023-12-14T15:28:33;10.50;61.00